aviador You're here:

LFPT Decoded Metar

PONTOISE in FRANCE
Report Time2018-02-21 05:00:00
UTC Time2018-02-21 05:07:15
Flight Rules ifr IFR
Wind030° at 09 kt
W.Decomp.*RWY 05: 8.5 kt HW 2.9 kt LCW
RWY 12: 0.2 kt HW 9 kt LCW
W.Rank030° ranks 19
Current wind is above 030° avg. (6.6)
Visibility4600 m
Phenomena:Mist
Clouds:N/A
Expected CloudBase > 800 ft AGL from Temp-Dew spread
CeilingNone
Temp01°C (ISA -13)
Dew Point-1°C (87% RH)
AAT-4.4°C
QNH1022 hPa
Density Alt-1,529 ft
Elevation325 ft
Report Wrong Elevation
Raw Report
METAR LFPT 210500Z AUTO 03009KT 4600 BR NSC 01/M01 Q1022=

Extra information for LFPT:More info

Metar Taf Metar & Taf Last 4 Metars F.Rules Stats Wind Profile Meteogram Temp Stats Airport Information Weather charts Add Link Nearby VenuesMetar ALERT Operation Metar Decoded Social comments